^^
Vremenska postaja Bezina
 
Daily Summary for September 26, 2017 Units:  Metric    English   Both
« Previous Day
Next Day »
Daily Weekly Monthly Yearly Custom
  Current: High: Low: Average:
Temperature: 12.3 °C 15.6 °C 11.3 °C 12.8 °C
Dew Point: 11.7 °C 13.3 °C 10.7 °C 11.9 °C
Humidity: 96% 97% 85% 94%
Wind Speed: 0.0km/h 4.8km/h 0.0km/h 0.6km/h
Wind Gust: 4.8km/h 9.7km/h - -
WindCalm - - ESE
Pressure: 1024.3 hPa 1024.3 hPa 1022.2 hPa -
Precipitation: 1.5 mm      
Historical Graphs
 
 
Tabular Data for September 26, 2017
Time Temperature Dew Point Pressure Wind Wind Speed Wind Gust Humidity Rainfall Rate (Hourly) solar Conditions
00:15 11.4 °C 10.8 °C 1022.6 hPa ENE 1.6 km/h 3.2 km/h 96% 0.0 mm 0 W/m2
00:30 11.4 °C 10.8 °C 1022.6 hPa Calm   1.6 km/h 96% 0.0 mm 0 W/m2
00:45 11.4 °C 10.8 °C 1022.6 hPa Calm     96% 0.0 mm 0 W/m2
01:00 11.4 °C 10.8 °C 1022.6 hPa Calm     96% 0.0 mm 0 W/m2
01:15 11.3 °C 10.7 °C 1022.6 hPa Calm     96% 0.0 mm 0 W/m2
01:30 11.3 °C 10.7 °C 1022.6 hPa Calm     96% 0.0 mm 0 W/m2
01:45 11.4 °C 10.8 °C 1022.6 hPa ENE 1.6 km/h 3.2 km/h 96% 0.0 mm 0 W/m2
02:15 11.5 °C 10.9 °C 1022.6 hPa Calm     96% 0.3 mm 0 W/m2
02:30 11.6 °C 10.9 °C 1022.6 hPa Calm   1.6 km/h 96% 0.5 mm 0 W/m2
02:45 11.5 °C 10.9 °C 1022.6 hPa NNE 3.2 km/h 4.8 km/h 96% 0.5 mm 0 W/m2
03:00 11.4 °C 10.8 °C 1022.6 hPa Calm   3.2 km/h 96% 0.5 mm 0 W/m2
03:15 11.4 °C 10.8 °C 1022.6 hPa Calm     96% 0.3 mm 0 W/m2
03:30 11.5 °C 10.9 °C 1022.6 hPa Calm     96% 0.0 mm 0 W/m2
03:45 11.5 °C 10.9 °C 1022.6 hPa Calm     96% 0.0 mm 0 W/m2
04:00 11.5 °C 10.9 °C 1022.2 hPa Calm     96% 0.0 mm 0 W/m2
04:15 11.6 °C 10.9 °C 1022.2 hPa Calm     96% 0.3 mm 0 W/m2
04:30 11.6 °C 11.0 °C 1022.2 hPa Calm     96% 0.3 mm 0 W/m2
04:45 11.7 °C 11.1 °C 1022.2 hPa Calm     96% 0.3 mm 0 W/m2
05:00 11.7 °C 11.2 °C 1022.2 hPa Calm   3.2 km/h 97% 0.5 mm 0 W/m2
05:30 11.7 °C 11.3 °C 1022.2 hPa Calm     97% 0.3 mm 0 W/m2
05:45 11.8 °C 11.3 °C 1022.2 hPa Calm     97% 0.3 mm 0 W/m2
06:00 11.8 °C 11.3 °C 1022.2 hPa Calm     97% 0.0 mm 0 W/m2
06:15 11.8 °C 11.3 °C 1022.2 hPa Calm     97% 0.0 mm 0 W/m2
06:30 11.8 °C 11.3 °C 1022.2 hPa Calm     97% 0.0 mm 0 W/m2
06:45 11.8 °C 11.3 °C 1022.6 hPa Calm   3.2 km/h 97% 0.3 mm 0 W/m2
07:00 11.8 °C 11.4 °C 1022.6 hPa Calm     97% 0.3 mm 0 W/m2
07:15 11.8 °C 11.4 °C 1022.6 hPa Calm   3.2 km/h 97% 0.5 mm 0 W/m2
07:30 11.8 °C 11.3 °C 1022.6 hPa Calm     97% 0.5 mm 0 W/m2
07:45 11.8 °C 11.4 °C 1022.6 hPa Calm   3.2 km/h 97% 0.3 mm 0 W/m2
08:15 11.9 °C 11.4 °C 1022.9 hPa Calm     97% 0.0 mm 9 W/m2
08:45 11.9 °C 11.5 °C 1023.2 hPa NE 1.6 km/h 3.2 km/h 97% 0.0 mm 12 W/m2
09:00 11.9 °C 11.5 °C 1023.2 hPa Calm   3.2 km/h 97% 0.0 mm 16 W/m2
09:15 12.0 °C 11.6 °C 1023.2 hPa Calm   1.6 km/h 97% 0.0 mm 21 W/m2
09:30 12.1 °C 11.7 °C 1023.2 hPa Calm   3.2 km/h 97% 0.0 mm 18 W/m2
09:45 12.2 °C 11.7 °C 1023.6 hPa Calm     97% 0.0 mm 19 W/m2
10:00 12.2 °C 11.8 °C 1023.6 hPa Calm   3.2 km/h 97% 0.0 mm 25 W/m2
10:15 12.3 °C 11.8 °C 1023.6 hPa Calm   1.6 km/h 97% 0.0 mm 47 W/m2
10:30 12.4 °C 11.9 °C 1023.6 hPa East 1.6 km/h 4.8 km/h 97% 0.0 mm 37 W/m2
10:45 12.4 °C 12.0 °C 1023.6 hPa Calm   1.6 km/h 97% 0.0 mm 40 W/m2
11:00 12.6 °C 12.0 °C 1023.9 hPa East 3.2 km/h 3.2 km/h 96% 0.0 mm 49 W/m2
11:15 12.7 °C 12.1 °C 1023.9 hPa East 1.6 km/h 4.8 km/h 96% 0.0 mm 51 W/m2
11:30 12.7 °C 12.1 °C 1023.9 hPa East 3.2 km/h 4.8 km/h 96% 0.0 mm 60 W/m2
11:45 12.9 °C 12.3 °C 1023.9 hPa Calm   3.2 km/h 96% 0.0 mm 111 W/m2
12:00 13.2 °C 12.4 °C 1023.9 hPa Calm   3.2 km/h 95% 0.0 mm 69 W/m2
12:15 13.3 °C 12.6 °C 1023.9 hPa Calm   1.6 km/h 95% 0.0 mm 74 W/m2
12:30 13.5 °C 12.7 °C 1023.9 hPa Calm   1.6 km/h 95% 0.0 mm 88 W/m2
12:45 13.7 °C 12.7 °C 1023.9 hPa Calm   1.6 km/h 94% 0.0 mm 83 W/m2
13:00 13.8 °C 12.9 °C 1023.9 hPa East 3.2 km/h 3.2 km/h 94% 0.0 mm 116 W/m2
13:15 14.1 °C 13.1 °C 1023.9 hPa Calm   4.8 km/h 94% 0.0 mm 137 W/m2
13:30 14.2 °C 13.1 °C 1023.6 hPa NE 3.2 km/h 4.8 km/h 93% 0.0 mm 185 W/m2
13:45 14.4 °C 13.1 °C 1023.6 hPa Calm   3.2 km/h 92% 0.0 mm 155 W/m2
14:00 14.7 °C 13.2 °C 1023.6 hPa Calm     91% 0.0 mm 179 W/m2
14:15 14.8 °C 13.2 °C 1023.6 hPa Calm   3.2 km/h 90% 0.0 mm 98 W/m2
14:30 14.8 °C 13.2 °C 1023.2 hPa SSE 1.6 km/h 9.7 km/h 90% 0.0 mm 139 W/m2
14:45 14.9 °C 12.9 °C 1023.2 hPa Calm   4.8 km/h 88% 0.0 mm 77 W/m2
15:00 14.8 °C 13.2 °C 1023.2 hPa Calm   4.8 km/h 90% 0.0 mm 72 W/m2
15:15 14.7 °C 13.1 °C 1023.2 hPa ESE 1.6 km/h 3.2 km/h 90% 0.0 mm 32 W/m2
15:30 14.6 °C 13.1 °C 1023.2 hPa Calm   1.6 km/h 91% 0.0 mm 104 W/m2
15:45 14.9 °C 13.2 °C 1023.2 hPa SW 3.2 km/h 4.8 km/h 89% 0.0 mm 410 W/m2
16:00 15.5 °C 13.3 °C 1023.2 hPa Calm   4.8 km/h 87% 0.0 mm 243 W/m2
16:15 15.6 °C 13.1 °C 1022.9 hPa Calm   3.2 km/h 85% 0.0 mm 151 W/m2
16:30 15.6 °C 13.3 °C 1023.2 hPa Calm   4.8 km/h 86% 0.0 mm 130 W/m2
16:45 15.6 °C 13.1 °C 1023.2 hPa Calm   3.2 km/h 85% 0.0 mm 107 W/m2
17:00 15.5 °C 13.2 °C 1023.2 hPa SW 1.6 km/h 3.2 km/h 86% 0.0 mm 107 W/m2
17:15 15.3 °C 13.0 °C 1023.2 hPa South 1.6 km/h 4.8 km/h 86% 0.0 mm 65 W/m2
17:30 15.1 °C 12.9 °C 1023.2 hPa Calm   4.8 km/h 87% 0.0 mm 58 W/m2
17:45 15.0 °C 13.0 °C 1023.6 hPa Calm     88% 0.0 mm 49 W/m2
18:00 14.8 °C 13.1 °C 1023.2 hPa Calm   1.6 km/h 89% 0.0 mm 35 W/m2
18:15 14.6 °C 13.1 °C 1023.6 hPa Calm     91% 0.0 mm 23 W/m2
18:30 14.2 °C 12.8 °C 1023.6 hPa Calm     91% 0.0 mm 12 W/m2
18:45 13.8 °C 12.3 °C 1023.6 hPa Calm     91% 0.0 mm 0 W/m2
19:00 13.2 °C 11.9 °C 1023.6 hPa Calm     92% 0.0 mm 0 W/m2
19:15 12.7 °C 11.8 °C 1023.6 hPa Calm   4.8 km/h 94% 0.0 mm 0 W/m2
19:30 12.5 °C 11.4 °C 1023.6 hPa Calm   3.2 km/h 93% 0.0 mm 0 W/m2
19:45 12.1 °C 11.0 °C 1023.9 hPa South 3.2 km/h 3.2 km/h 93% 0.0 mm 0 W/m2
20:00 12.0 °C 11.2 °C 1023.9 hPa South 4.8 km/h 4.8 km/h 95% 0.0 mm 0 W/m2
20:15 12.1 °C 11.4 °C 1024.3 hPa Calm     96% 0.0 mm 0 W/m2
20:30 12.1 °C 11.4 °C 1024.3 hPa Calm     96% 0.0 mm 0 W/m2
20:45 12.1 °C 11.5 °C 1024.3 hPa South 1.6 km/h 4.8 km/h 96% 0.0 mm 0 W/m2
21:00 12.2 °C 11.6 °C 1024.3 hPa South 1.6 km/h 4.8 km/h 96% 0.0 mm 0 W/m2
21:15 12.3 °C 11.7 °C 1024.3 hPa South 1.6 km/h 4.8 km/h 96% 0.5 mm 0 W/m2
21:30 12.3 °C 11.7 °C 1024.3 hPa Calm   4.8 km/h 96% 0.5 mm 0 W/m2
21:45 12.3 °C 11.7 °C 1024.3 hPa Calm   4.8 km/h 96% 0.5 mm 0 W/m2
Juneau County Weather
Compliments of Weather Underground - 1.75 mb